Flight Track Log - Related Links

Times and Time Zones

All times are in EDT time to prevent confusion due to time zone crossing. See the ASQ6151 flight status page for this flight to view local times or setup timezone preferences in your user account.

Time Position Orientation Groundspeed Altitude Reporting Facility
EDT Latitude Longitude Course Direction KTS MPH feet Rate Location/Type
Mon 07:25:56 PM 32.1622 -81.1061 North 225 259 2,800  Level Jacksonville Center
Mon 07:26:56 PM 32.2144 -81.1050 North 239 275 4,600 2,050 Climbing Jacksonville Center
Mon 07:27:56 PM 32.2897 -81.1033 North 265 305 6,900 2,200 Climbing Jacksonville Center
Mon 07:28:56 PM 32.3647 -81.1044 359° North 270 311 9,000 1,950 Climbing Jacksonville Center
Mon 07:29:56 PM 32.4442 -81.1006 North 270 311 10,800 1,950 Climbing Jacksonville Center
Mon 07:30:00 PM 32.6578 -81.1500 North  Level FlightAware Approximate
Mon 07:30:56 PM 32.5108 -81.0992 North 270 311 12,900  Level Jacksonville Center
Mon 07:31:00 PM 32.7489 -81.1439 North  Level FlightAware Approximate
Mon 07:31:56 PM 32.5964 -81.0975 North 276 318 14,600  Level Jacksonville Center
Mon 07:32:56 PM 32.6714 -81.0961 North 279 321 15,600 800 Climbing Jacksonville Center
Mon 07:33:56 PM 32.7717 -81.0914 North 299 344 16,200 650 Climbing Jacksonville Center
Mon 07:34:56 PM 32.8675 -81.0847 North 323 372 16,900 700 Climbing Jacksonville Center
Mon 07:35:56 PM 32.9678 -81.0828 North 342 394 17,600 700 Climbing Jacksonville Center
Mon 07:36:56 PM 33.0719 -81.0806 North 361 415 18,300 900 Climbing Jacksonville Center
Mon 07:37:56 PM 33.1806 -81.0783 North 368 423 19,400 1,050 Climbing Jacksonville Center
Mon 07:38:56 PM 33.2850 -81.0736 North 373 429 20,400 1,000 Climbing Jacksonville Center
Mon 07:39:56 PM 33.3914 -81.0717 North 373 429 21,400 1,000 Climbing Jacksonville Center
Mon 07:40:56 PM 33.4997 -81.0694 North 379 436 22,400 1,050 Climbing Jacksonville Center
Mon 07:41:56 PM 33.6061 -81.0647 North 384 442 23,500 1,050 Climbing Jacksonville Center
Mon 07:42:56 PM 33.7144 -81.0600 North 384 442 24,500 1,000 Climbing Jacksonville Center
Mon 07:43:56 PM 33.8083 -81.0556 North 379 436 25,500 1,000 Climbing Jacksonville Center
Mon 07:44:56 PM 33.9172 -81.0781 350° North 384 442 26,500 1,000 Climbing Jacksonville Center
Mon 07:45:56 PM 34.0158 -81.1186 341° North 384 442 27,500 1,000 Climbing Jacksonville Center
Mon 07:47:56 PM 34.2164 -81.2028 341° North 382 440 29,500 1,000 Climbing Atlanta Center
Mon 07:48:56 PM 34.3197 -81.2419 343° North 382 440 30,500 900 Climbing Atlanta Center
Mon 07:49:56 PM 34.4333 -81.2911 340° North 392 451 31,300 750 Climbing Atlanta Center
Mon 07:50:56 PM 34.5281 -81.3258 343° North 392 451 32,000 800 Climbing Atlanta Center
Mon 07:51:56 PM 34.6461 -81.3825 338° Northwest 406 467 32,900 800 Climbing Atlanta Center
Mon 07:52:56 PM 34.7472 -81.4222 342° North 412 474 33,600 750 Climbing Atlanta Center
Mon 07:53:56 PM 34.8525 -81.4622 343° North 412 474 34,400 800 Climbing Atlanta Center
Mon 07:54:56 PM 34.9619 -81.5094 341° North 412 474 35,200 800 Climbing Atlanta Center
Mon 07:55:56 PM 35.0714 -81.5569 340° North 412 474 36,000 400 Climbing Atlanta Center
Mon 07:56:56 PM 35.1808 -81.6017 342° North 412 474 36,000  Level Atlanta Center
Mon 07:57:56 PM 35.3069 -81.6542 341° North 417 480 36,000  Level Atlanta Center
Mon 07:58:56 PM 35.4247 -81.7042 341° North 438 504 36,000  Level Atlanta Center
Mon 07:59:56 PM 35.5447 -81.7519 342° North 444 511 36,000  Level Atlanta Center
Mon 08:00:56 PM 35.6625 -81.8022 341° North 449 517 36,000  Level Atlanta Center
Mon 08:01:56 PM 35.7781 -81.8503 341° North 449 517 36,000  Level Atlanta Center
Mon 08:02:56 PM 35.8958 -81.9008 341° North 449 517 36,000  Level Atlanta Center
Mon 08:03:56 PM 35.9967 -81.9444 341° North 444 511 36,000  Level Atlanta Center
Mon 08:04:56 PM 36.1122 -81.9928 341° North 444 511 36,000  Level Atlanta Center
Mon 08:05:56 PM 36.2319 -82.0414 342° North 437 503 36,000  Level Atlanta Center
Mon 08:06:56 PM 36.3536 -82.0925 341° North 427 491 36,000  Level Atlanta Center
Mon 08:07:56 PM 36.4631 -82.1542 336° Northwest 427 491 36,000  Level Atlanta Center
Mon 08:10:26 PM 36.7053 -82.3847 323° Northwest 435 501 36,000  Level Indianapolis Center
Mon 08:11:28 PM 36.8022 -82.4775 323° Northwest 438 504 36,000  Level Indianapolis Center
Mon 08:12:30 PM 36.8975 -82.5694 322° Northwest 435 501 36,000  Level Indianapolis Center
Mon 08:13:31 PM 36.9928 -82.6600 323° Northwest 435 501 36,000  Level Indianapolis Center
Mon 08:14:33 PM 37.0867 -82.7517 322° Northwest 435 501 36,000  Level Indianapolis Center
Mon 08:15:34 PM 37.1964 -82.8586 322° Northwest 430 495 36,000  Level Indianapolis Center
Mon 08:16:36 PM 37.2906 -82.9500 322° Northwest 430 495 36,000  Level Indianapolis Center
Mon 08:17:38 PM 37.3844 -83.0422 322° Northwest 430 495 36,000  Level Indianapolis Center
Mon 08:18:40 PM 37.4786 -83.1342 322° Northwest 428 493 36,000  Level Indianapolis Center
Mon 08:19:41 PM 37.5722 -83.2272 322° Northwest 428 493 36,000  Level Indianapolis Center
Mon 08:20:43 PM 37.6650 -83.3186 322° Northwest 423 487 36,000  Level Indianapolis Center
Mon 08:21:45 PM 37.7733 -83.4261 322° Northwest 425 489 36,000  Level Indianapolis Center
Mon 08:22:46 PM 37.8647 -83.5158 322° Northwest 417 480 36,000  Level Indianapolis Center
Mon 08:23:48 PM 37.9542 -83.6056 322° Northwest 411 473 36,000  Level Indianapolis Center
Mon 08:24:50 PM 38.0431 -83.6942 322° Northwest 406 467 36,000  Level Indianapolis Center
Mon 08:25:52 PM 38.1308 -83.7833 321° Northwest 405 466 36,000  Level Indianapolis Center
Mon 08:26:54 PM 38.2181 -83.8719 321° Northwest 401 461 36,000  Level Indianapolis Center
Mon 08:27:55 PM 38.3222 -83.9761 322° Northwest 407 468 36,000  Level Indianapolis Center
Mon 08:28:57 PM 38.4108 -84.0661 321° Northwest 407 468 36,000  Level Indianapolis Center
Mon 08:29:59 PM 38.5003 -84.1581 321° Northwest 412 474 36,000  Level Indianapolis Center
Mon 08:31:00 PM 38.5908 -84.2492 322° Northwest 414 476 36,000  Level Indianapolis Center
Mon 08:32:02 PM 38.6761 -84.3392 321° Northwest 414 476 36,000  Level Indianapolis Center
Mon 08:33:04 PM 38.7619 -84.4403 317° Northwest 415 478 36,000  Level Indianapolis Center
Mon 08:34:06 PM 38.8569 -84.5503 318° Northwest 413 475 36,000  Level Indianapolis Center
Mon 08:35:07 PM 38.9669 -84.6286 331° Northwest 421 484 36,000 -98 Level Indianapolis Center
Mon 08:36:09 PM 39.0731 -84.6939 334° Northwest 420 483 35,800 -435 Descending Indianapolis Center
Mon 08:37:11 PM 39.1878 -84.7428 342° North 427 491 35,100 -823 Descending Indianapolis Center
Mon 08:38:13 PM 39.3042 -84.7928 342° North 434 499 34,100 -1,366 Descending Indianapolis Center
Mon 08:39:14 PM 39.4192 -84.8378 343° North 429 494 32,300 -1,902 Descending Indianapolis Center
Mon 08:40:16 PM 39.5342 -84.8850 342° North 427 491 30,200 -1,984 Descending Indianapolis Center
Mon 08:41:18 PM 39.6494 -84.9417 339° North 431 496 28,200 -1,065 Descending Indianapolis Center
Mon 08:42:20 PM 39.7503 -85.0269 327° Northwest 436 502 28,000 -585 Descending Indianapolis Center
Mon 08:43:21 PM 39.8233 -85.1344 312° West 401 461 27,000 -927 Descending Indianapolis Center
Mon 08:44:23 PM 39.8717 -85.2533 298° West 374 430 26,100 -484 Descending Indianapolis Center
Mon 08:45:25 PM 39.9294 -85.3936 298° West 368 423 26,000 -49 Descending Indianapolis Center
Mon 08:46:26 PM 39.9819 -85.5153 299° West 384 442 26,000  Level Indianapolis Center
Mon 08:47:28 PM 40.0442 -85.6311 305° West 398 458 26,000 -327 Level Indianapolis Center
Mon 08:48:16 PM 40.1364 -85.6639 345° North 437 503 25,400 -873 Descending Chicago Center
Mon 08:49:18 PM 40.2661 -85.6678 359° North 464 534 24,400 -677 Descending Chicago Center
Mon 08:50:20 PM 40.3725 -85.7339 335° Northwest 451 519 24,000 -194 Descending Chicago Center
Mon 08:51:22 PM 40.4550 -85.8547 312° West 447 514 24,000 -484 Level Chicago Center
Mon 08:52:24 PM 40.5569 -85.9975 313° West 449 517 23,000 -484 Descending Chicago Center
Mon 08:53:26 PM 40.6394 -86.1122 313° West 437 503 23,000  Level Chicago Center
Mon 08:54:28 PM 40.7142 -86.2192 313° West 436 502 23,000  Level Chicago Center
Mon 08:55:30 PM 40.8136 -86.3611 313° West 439 505 23,000  Level Chicago Center
Mon 08:56:32 PM 40.8972 -86.4811 313° West 443 510 23,000 -145 Level Chicago Center
Mon 08:57:34 PM 40.9794 -86.6003 312° West 440 506 22,700 -1,306 Descending Chicago Center
Mon 08:58:36 PM 41.0597 -86.7142 313° West 425 489 20,300 -2,565 Descending Chicago Center
Mon 08:59:38 PM 41.1469 -86.8381 313° West 410 472 17,400 -2,468 Descending Chicago Center
Mon 09:00:40 PM 41.2186 -86.9428 312° West 390 449 15,200 -2,129 Descending Chicago Center
Mon 09:01:42 PM 41.2875 -87.0447 312° West 378 435 13,000 -1,968 Descending Chicago Center
Mon 09:02:45 PM 41.3567 -87.1453 313° West 373 429 11,100 -960 Descending Chicago Center
Mon 09:03:47 PM 41.4228 -87.2408 313° West 359 413 11,000 -48 Descending Chicago Center
Mon 09:04:49 PM 41.5003 -87.3556 312° West 352 405 11,000  Level Chicago Center
Mon 09:05:51 PM 41.5733 -87.4403 319° Northwest 351 404 11,000  Level Chicago Center
Mon 09:06:53 PM 41.6478 -87.5228 320° Northwest 351 404 11,000 -194 Level Chicago Center
Mon 09:07:55 PM 41.7206 -87.6075 319° Northwest 353 406 10,600 -726 Descending Chicago Center
Mon 09:08:57 PM 41.7922 -87.6883 320° Northwest 284 327 9,500 -968 Descending Chicago Center
Mon 09:09:59 PM 41.8542 -87.7578 320° Northwest 291 335 8,600 -968 Descending Chicago Center
Mon 09:11:01 PM 41.9258 -87.7911 341° North 289 333 7,500 -774 Descending Chicago Center
Mon 09:12:03 PM 41.9950 -87.7689 13° North 275 316 7,000 -677 Descending Chicago Center
Mon 09:13:05 PM 42.0550 -87.7128 35° Northeast 263 303 6,100 -968 Descending Chicago Center
Mon 09:14:07 PM 42.1275 -87.6483 33° Northeast 262 302 5,000 -919 Descending Chicago Center
Mon 09:15:09 PM 42.1569 -87.7108 302° West 223 257 4,200 -629 Descending Chicago Center
Mon 09:16:11 PM 42.1275 -87.7572 229° Southwest 178 205 3,700 -576 Descending Chicago Center
Mon 09:17:14 PM 42.0919 -87.7936 217° Southwest 168 193 3,000 -768 Descending Chicago Center
Mon 09:18:16 PM 42.0572 -87.8325 220° Southwest 165 190 2,100 -726 Descending Chicago Center
Mon 09:19:18 PM 42.0272 -87.8650 219° Southwest 154 177 1,500 -714 Descending Chicago Center
Mon 09:19:40 PM 42.0167 -87.8833 232° Southwest 130 150 1,100 -1,091 Descending Chicago TRACON
Mon 09:21:00 PM 41.9817 -87.9067 270° West  Level Estimated

Login

Don't have an account? Register now (free) for customized features, flight alerts, and more!